Time;durP1;ratioP1;P1;durP2;ratioP2;P2;SDS_P1;SDS_P2;PMS_P1;PMS_P2;Temp;Humidity;BMP_temperature;BMP_pressure;BME280_temperature;BME280_humidity;BME280_pressure;Samples;Min_cycle;Max_cycle;Signal;HPM_P1;HPM_P2
2021/08/03 00:01:04;;;;;;;17.95;5.43;;;;;;;24.26;48.07;96105.84;5074593;28;20099;-65
2021/08/03 00:03:33;;;;;;;21.77;5.72;;;;;;;24.18;48.20;96099.47;5074564;28;20029;-65
2021/08/03 00:06:04;;;;;;;18.30;5.10;;;;;;;24.05;48.46;96104.34;5074541;28;20029;-65
2021/08/03 00:08:35;;;;;;;19.05;5.38;;;;;;;23.92;48.25;96107.38;5074533;28;20470;-65
2021/08/03 00:11:05;;;;;;;15.93;4.97;;;;;;;23.89;49.01;96108.53;5074286;28;20066;-65
2021/08/03 00:13:32;;;;;;;23.95;6.15;;;;;;;23.81;48.40;96114.63;5074375;28;20063;-65
2021/08/03 00:16:01;;;;;;;19.65;6.05;;;;;;;23.75;49.02;96111.72;5074312;28;20024;-65
2021/08/03 00:18:29;;;;;;;13.52;5.00;;;;;;;23.63;49.49;96111.94;5074220;28;20027;-65
2021/08/03 00:20:56;;;;;;;17.35;4.65;;;;;;;23.54;49.75;96111.00;5074128;28;20048;-65
2021/08/03 00:23:22;;;;;;;17.45;6.20;;;;;;;23.48;50.42;96107.13;5074141;28;20027;-65
2021/08/03 00:25:51;;;;;;;24.90;5.82;;;;;;;23.40;50.45;96108.84;5073995;28;20016;-65
2021/08/03 00:28:17;;;;;;;21.00;6.25;;;;;;;23.22;50.42;96098.97;5074134;28;20021;-65
2021/08/03 00:30:43;;;;;;;19.38;5.20;;;;;;;23.12;50.80;96100.84;5073934;28;20382;-65
2021/08/03 00:33:11;;;;;;;21.88;6.35;;;;;;;23.07;51.81;96102.13;5073905;28;20028;-65
2021/08/03 00:35:36;;;;;;;19.65;5.80;;;;;;;22.92;50.87;96107.09;5073861;28;20082;-65
2021/08/03 00:38:02;;;;;;;16.75;5.10;;;;;;;22.93;51.73;96119.44;5073881;28;20054;-65
2021/08/03 00:40:31;;;;;;;16.20;5.10;;;;;;;22.88;51.55;96115.53;5073854;28;20024;-65
2021/08/03 00:42:56;;;;;;;19.98;4.95;;;;;;;22.83;51.80;96118.63;5073514;28;20048;-65
2021/08/03 00:45:22;;;;;;;20.52;5.30;;;;;;;22.77;52.54;96127.22;5073734;28;20021;-65
2021/08/03 00:47:48;;;;;;;18.83;4.85;;;;;;;22.68;52.32;96121.78;5073598;28;20433;-65
2021/08/03 00:50:13;;;;;;;25.40;5.75;;;;;;;22.63;53.09;96120.53;5073606;28;20094;-65
2021/08/03 00:52:41;;;;;;;11.25;5.25;;;;;;;22.44;53.27;96130.22;5073743;28;20425;-65
2021/08/03 00:55:09;;;;;;;16.75;5.70;;;;;;;22.39;53.71;96117.31;5073089;28;20044;-65
2021/08/03 00:57:35;;;;;;;16.35;4.80;;;;;;;22.27;52.72;96129.94;5073509;28;20053;-65
2021/08/03 01:00:00;;;;;;;20.55;5.40;;;;;;;22.11;53.58;96133.19;5073511;28;20033;-65
2021/08/03 01:02:26;;;;;;;17.08;5.35;;;;;;;22.02;54.33;96136.69;5073391;28;20035;-65
2021/08/03 01:04:52;;;;;;;18.95;5.60;;;;;;;21.98;54.74;96128.16;5073411;28;20023;-65
2021/08/03 01:07:28;;;;;;;22.30;5.40;;;;;;;21.91;54.38;96132.34;5073454;28;20032;-65
2021/08/03 01:10:09;;;;;;;13.70;4.60;;;;;;;21.83;54.64;96143.69;5073392;28;20021;-65
2021/08/03 01:12:53;;;;;;;19.25;5.20;;;;;;;21.76;54.42;96146.06;5073256;28;20028;-65
2021/08/03 01:15:21;;;;;;;15.32;4.82;;;;;;;21.68;55.36;96146.72;5073248;28;20490;-65
2021/08/03 01:18:11;;;;;;;15.45;5.03;;;;;;;21.50;55.08;96148.38;5073308;28;20024;-65
2021/08/03 01:21:15;;;;;;;18.08;5.63;;;;;;;21.50;56.21;96151.88;5073288;28;20029;-66
2021/08/03 01:24:06;;;;;;;18.75;4.85;;;;;;;21.42;55.84;96141.91;5073164;28;20089;-65
2021/08/03 01:26:41;;;;;;;14.68;4.28;;;;;;;21.42;56.52;96141.06;5073108;28;20501;-65
2021/08/03 01:29:09;;;;;;;19.20;5.55;;;;;;;21.38;56.45;96132.53;5073101;28;20032;-65
2021/08/03 01:31:43;;;;;;;17.00;5.60;;;;;;;21.29;55.70;96136.00;5073127;28;20027;-65
2021/08/03 01:34:13;;;;;;;16.83;5.20;;;;;;;21.21;56.81;96134.00;5073084;28;20058;-65
2021/08/03 01:36:45;;;;;;;18.73;5.75;;;;;;;21.20;56.62;96141.13;5073009;28;20081;-65
2021/08/03 01:39:13;;;;;;;13.23;4.85;;;;;;;21.01;56.58;96133.94;5073009;28;20393;-65
2021/08/03 01:41:39;;;;;;;17.10;5.65;;;;;;;20.87;57.00;96136.91;5072762;28;20041;-65
2021/08/03 01:44:09;;;;;;;18.85;5.30;;;;;;;20.89;57.55;96135.81;5073012;28;20096;-65
2021/08/03 01:46:36;;;;;;;15.70;5.87;;;;;;;20.83;57.54;96129.22;5072902;28;20523;-65
2021/08/03 01:49:03;;;;;;;22.63;6.22;;;;;;;20.78;57.87;96131.44;5072866;28;20264;-65
2021/08/03 01:51:31;;;;;;;18.20;5.90;;;;;;;20.76;58.31;96125.41;5072773;28;20028;-65
2021/08/03 01:53:57;;;;;;;17.20;5.60;;;;;;;20.79;58.04;96126.94;5072780;28;20031;-66
2021/08/03 01:56:24;;;;;;;14.10;5.80;;;;;;;20.78;57.99;96125.28;5072728;28;20124;-66
2021/08/03 01:58:51;;;;;;;15.98;5.30;;;;;;;20.83;58.19;96126.56;5072773;28;20025;-65
2021/08/03 02:01:20;;;;;;;18.40;5.57;;;;;;;20.88;58.27;96135.94;5072748;28;20347;-66
2021/08/03 02:03:48;;;;;;;16.58;5.60;;;;;;;20.83;58.28;96134.53;5072786;28;20060;-66
2021/08/03 02:06:15;;;;;;;14.30;6.55;;;;;;;20.85;58.58;96139.72;5074338;28;20365;-66
2021/08/03 02:08:42;;;;;;;22.20;6.25;;;;;;;20.79;58.18;96138.44;5076694;28;20043;-66
2021/08/03 02:11:08;;;;;;;15.65;5.85;;;;;;;20.80;58.74;96145.41;5076787;28;20111;-66
2021/08/03 02:13:34;;;;;;;14.27;5.43;;;;;;;20.72;58.08;96147.91;5076695;28;20154;-66
2021/08/03 02:16:00;;;;;;;14.00;5.22;;;;;;;20.71;59.17;96148.88;5076453;28;20535;-66
2021/08/03 02:18:26;;;;;;;21.75;5.25;;;;;;;20.66;59.07;96151.09;5076563;28;20032;-66
2021/08/03 02:20:53;;;;;;;16.35;5.78;;;;;;;20.67;59.54;96153.59;5076478;28;20031;-66
2021/08/03 02:23:19;;;;;;;18.42;5.50;;;;;;;20.58;59.05;96149.06;5076552;28;20029;-65
2021/08/03 02:25:45;;;;;;;15.77;5.25;;;;;;;20.59;58.95;96148.13;5076482;28;20054;-66
2021/08/03 02:28:10;;;;;;;16.52;5.60;;;;;;;20.60;59.18;96148.94;5076477;28;20051;-66
2021/08/03 02:30:37;;;;;;;19.35;5.93;;;;;;;20.48;59.78;96153.47;5076336;28;20043;-66
2021/08/03 02:33:07;;;;;;;16.08;6.45;;;;;;;20.45;60.18;96143.97;5076245;28;20025;-66
2021/08/03 02:35:42;;;;;;;15.73;5.85;;;;;;;20.41;59.77;96151.34;5076325;28;20119;-65
2021/08/03 02:38:12;;;;;;;12.23;5.28;;;;;;;20.46;60.24;96156.28;5076304;28;20039;-66
2021/08/03 02:40:41;;;;;;;16.13;6.15;;;;;;;20.47;60.12;96162.44;5076211;28;20034;-66
2021/08/03 02:43:07;;;;;;;21.35;5.97;;;;;;;20.46;60.35;96172.19;5075935;28;20119;-66
2021/08/03 02:45:33;;;;;;;13.02;5.38;;;;;;;20.42;60.17;96174.28;5075970;28;20048;-66
2021/08/03 02:48:10;;;;;;;15.73;5.78;;;;;;;20.37;60.67;96173.81;5076077;28;20096;-65
2021/08/03 02:50:37;;;;;;;12.38;5.15;;;;;;;20.34;60.60;96176.72;5076018;28;20560;-66
2021/08/03 02:53:11;;;;;;;14.27;5.35;;;;;;;20.33;60.79;96170.59;5075857;28;20024;-66
2021/08/03 02:55:45;;;;;;;14.77;6.22;;;;;;;20.35;61.16;96177.59;5075762;28;20035;-66
2021/08/03 02:58:16;;;;;;;14.10;5.80;;;;;;;20.26;61.13;96184.50;5075798;28;20024;-66
2021/08/03 03:00:43;;;;;;;17.17;6.13;;;;;;;20.25;61.19;96186.31;5075807;28;20074;-66
2021/08/03 03:03:14;;;;;;;18.67;6.00;;;;;;;20.19;61.41;96187.66;5075731;28;20024;-66
2021/08/03 03:05:42;;;;;;;11.65;4.95;;;;;;;20.17;61.69;96188.78;5075673;28;20382;-66
2021/08/03 03:08:13;;;;;;;13.65;5.80;;;;;;;20.18;61.89;96193.97;5075590;28;20016;-66
2021/08/03 03:11:00;;;;;;;13.75;5.97;;;;;;;20.18;61.71;96196.63;5075543;28;20051;-66
2021/08/03 03:13:46;;;;;;;12.63;6.00;;;;;;;20.29;61.44;96213.47;5075538;28;20568;-66
2021/08/03 03:16:15;;;;;;;14.57;6.28;;;;;;;20.43;60.69;96215.81;5075344;28;20039;-66
2021/08/03 03:18:41;;;;;;;17.80;5.70;;;;;;;20.60;60.14;96213.56;5075276;28;20020;-65
2021/08/03 03:21:08;;;;;;;12.65;5.45;;;;;;;20.62;60.40;96222.22;5075305;28;20074;-66
2021/08/03 03:23:35;;;;;;;11.15;5.28;;;;;;;20.68;60.25;96219.06;5075394;28;20451;-66
2021/08/03 03:26:02;;;;;;;14.57;5.55;;;;;;;20.69;60.75;96220.75;5075316;28;20023;-66
2021/08/03 03:28:31;;;;;;;14.52;5.78;;;;;;;20.64;60.60;96225.59;5075254;28;20028;-66
2021/08/03 03:30:58;;;;;;;12.70;5.47;;;;;;;20.75;60.75;96234.47;5075262;28;20024;-66
2021/08/03 03:33:26;;;;;;;12.52;5.80;;;;;;;20.79;60.46;96236.75;5075220;28;20555;-66
2021/08/03 03:35:55;;;;;;;16.88;5.65;;;;;;;20.89;60.57;96228.00;5075081;28;20377;-66
2021/08/03 03:38:28;;;;;;;13.45;5.57;;;;;;;20.81;60.12;96231.31;5075097;28;20351;-66
2021/08/03 03:40:55;;;;;;;12.65;5.20;;;;;;;20.87;61.22;96236.09;5075260;28;20355;-66
2021/08/03 03:43:22;;;;;;;21.67;5.60;;;;;;;20.84;61.00;96239.84;5074774;28;20052;-66
2021/08/03 03:46:01;;;;;;;12.48;5.72;;;;;;;20.78;61.70;96232.41;5075004;28;20378;-66
2021/08/03 03:48:29;;;;;;;17.45;5.30;;;;;;;20.75;61.81;96235.34;5075154;28;20016;-66
2021/08/03 03:51:00;;;;;;;21.83;5.97;;;;;;;20.80;61.51;96235.78;5074987;28;20024;-66
2021/08/03 03:53:31;;;;;;;;;;;;;;;20.92;61.87;96230.44;5075460;28;20432;-66
2021/08/03 03:56:02;;;;;;;;;;;;;;;20.95;61.82;96233.66;5075124;28;19912;-66
2021/08/03 03:58:33;;;;;;;13.57;5.78;;;;;;;21.10;60.63;96233.31;5074815;28;19920;-66
2021/08/03 04:00:58;;;;;;;;;;;;;;;21.39;60.73;96243.25;5075249;28;20474;-66
2021/08/03 04:03:25;;;;;;;18.17;5.40;;;;;;;21.65;60.08;96249.94;5074653;28;19912;-65
2021/08/03 04:05:53;;;;;;;16.13;5.57;;;;;;;22.00;59.68;96251.31;5074573;28;20036;-66
2021/08/03 04:08:19;;;;;;;13.35;5.93;;;;;;;22.26;58.33;96249.94;5074472;28;20064;-66
2021/08/03 04:10:45;;;;;;;14.35;5.47;;;;;;;22.53;57.27;96249.25;5074435;28;20032;-66
2021/08/03 04:13:12;;;;;;;13.55;6.07;;;;;;;22.88;57.19;96255.03;5074599;28;20099;-66
2021/08/03 04:15:37;;;;;;;15.15;4.95;;;;;;;23.29;57.00;96252.09;5074235;28;20024;-65
2021/08/03 04:18:04;;;;;;;20.35;6.07;;;;;;;23.64;56.39;96260.44;5074312;28;20027;-66
2021/08/03 04:20:30;;;;;;;14.13;6.28;;;;;;;24.05;55.14;96259.25;5074274;28;20082;-66
2021/08/03 04:22:55;;;;;;;8.75;4.80;;;;;;;24.36;55.05;96258.91;5074194;28;20025;-66
2021/08/03 04:25:21;;;;;;;15.68;5.40;;;;;;;24.68;54.17;96259.38;5074211;28;20071;-66
2021/08/03 04:27:47;;;;;;;10.85;5.15;;;;;;;25.02;52.63;96263.16;5074125;28;20020;-66
2021/08/03 04:30:14;;;;;;;10.57;5.00;;;;;;;25.32;51.38;96274.41;5073454;28;20100;-66
2021/08/03 04:32:41;;;;;;;13.88;5.15;;;;;;;25.60;52.09;96271.56;5073972;28;20103;-66
2021/08/03 04:35:07;;;;;;;15.35;5.63;;;;;;;25.90;51.49;96280.06;5073831;28;20021;-66
2021/08/03 04:37:38;;;;;;;11.18;5.35;;;;;;;26.27;50.49;96274.50;5073988;28;20094;-66
2021/08/03 04:40:04;;;;;;;17.38;5.45;;;;;;;26.78;50.13;96268.22;5073795;28;20027;-66
2021/08/03 04:42:30;;;;;;;12.40;4.93;;;;;;;27.12;49.00;96273.41;5073598;28;20101;-66
2021/08/03 04:44:56;;;;;;;21.27;5.28;;;;;;;27.50;46.59;96261.25;5073772;28;20023;-66
2021/08/03 04:47:22;;;;;;;10.07;5.05;;;;;;;28.00;47.99;96267.28;5073763;28;20029;-66
2021/08/03 04:49:47;;;;;;;10.20;4.63;;;;;;;28.29;46.92;96262.28;5073639;28;20021;-66
2021/08/03 04:52:13;;;;;;;10.25;4.90;;;;;;;28.64;46.00;96267.28;5055744;28;20029;-66
2021/08/03 04:54:39;;;;;;;11.75;5.47;;;;;;;29.06;44.22;96281.25;5073485;28;20091;-66
2021/08/03 04:57:04;;;;;;;12.48;5.10;;;;;;;29.42;45.63;96285.13;5073564;28;20356;-66
2021/08/03 04:59:30;;;;;;;9.80;5.00;;;;;;;29.77;44.16;96287.31;5073494;28;20029;-66
2021/08/03 05:01:55;;;;;;;12.20;5.05;;;;;;;30.01;44.06;96286.16;5073560;28;20037;-66
2021/08/03 05:04:21;;;;;;;10.50;4.45;;;;;;;30.30;43.85;96283.63;5073433;28;20032;-67
2021/08/03 05:06:46;;;;;;;16.40;5.32;;;;;;;30.63;42.70;96283.13;5073490;28;20383;-67
2021/08/03 05:09:12;;;;;;;11.18;4.82;;;;;;;30.96;40.51;96280.97;5073256;28;20016;-67
2021/08/03 05:11:38;;;;;;;12.80;5.05;;;;;;;30.94;40.66;96281.16;5073382;28;20020;-67
2021/08/03 05:14:03;;;;;;;12.35;5.78;;;;;;;30.94;39.58;96291.94;5073404;28;20021;-67
2021/08/03 05:16:29;;;;;;;10.25;5.57;;;;;;;30.98;38.09;96284.31;5073236;28;20125;-66
2021/08/03 05:18:55;;;;;;;10.38;5.82;;;;;;;31.07;36.86;96285.84;5073178;28;20044;-66
2021/08/03 05:21:21;;;;;;;9.82;5.97;;;;;;;30.84;36.64;96286.88;5073144;28;20096;-67
2021/08/03 05:23:46;;;;;;;10.23;5.70;;;;;;;31.02;34.18;96293.69;5073148;28;20112;-66
2021/08/03 05:26:12;;;;;;;16.67;6.43;;;;;;;31.20;34.57;96300.47;5073223;28;20095;-66
2021/08/03 05:28:38;;;;;;;12.50;5.80;;;;;;;31.51;35.78;96305.50;5073279;28;20478;-66
2021/08/03 05:31:03;;;;;;;12.25;5.70;;;;;;;31.56;32.81;96298.66;5073078;28;20020;-66
2021/08/03 05:33:29;;;;;;;11.55;5.78;;;;;;;31.75;32.08;96303.38;5073197;28;20024;-67
2021/08/03 05:35:54;;;;;;;13.55;5.68;;;;;;;31.90;33.99;96300.53;5073105;28;20025;-67
2021/08/03 05:38:20;;;;;;;11.10;5.90;;;;;;;31.85;32.32;96307.59;5073027;28;20028;-66
2021/08/03 05:40:46;;;;;;;14.75;5.30;;;;;;;32.08;31.16;96306.47;5073064;28;20024;-66
2021/08/03 05:43:12;;;;;;;15.02;5.22;;;;;;;32.13;31.05;96293.19;5072759;28;20044;-67
2021/08/03 05:45:38;;;;;;;10.60;5.40;;;;;;;32.34;31.41;96294.94;5073001;28;20059;-67
2021/08/03 05:48:04;;;;;;;12.30;4.82;;;;;;;32.31;30.93;96295.31;5072872;28;20044;-66
2021/08/03 05:50:29;;;;;;;12.38;5.53;;;;;;;32.61;31.10;96300.44;5072913;28;20020;-67
2021/08/03 05:52:55;;;;;;;15.25;5.18;;;;;;;32.89;29.37;96304.00;5072921;28;20129;-66
2021/08/03 05:55:20;;;;;;;8.40;5.00;;;;;;;33.26;32.03;96304.47;5072883;28;20036;-67
2021/08/03 05:57:46;;;;;;;22.23;5.32;;;;;;;33.48;29.59;96309.66;5072944;28;20058;-67
2021/08/03 06:00:12;;;;;;;9.75;5.18;;;;;;;33.38;28.50;96311.97;5072863;28;20104;-66
2021/08/03 06:02:38;;;;;;;14.13;5.82;;;;;;;33.53;28.74;96315.28;5072746;28;20455;-66
2021/08/03 06:05:04;;;;;;;11.93;5.15;;;;;;;33.44;28.98;96308.44;5072766;28;20104;-66
2021/08/03 06:07:41;;;;;;;14.07;4.75;;;;;;;33.48;29.24;96315.09;5072833;28;20031;-66
2021/08/03 06:10:11;;;;;;;6.50;4.85;;;;;;;33.55;28.87;96306.94;5072877;28;20035;-67
2021/08/03 06:12:38;;;;;;;10.23;4.75;;;;;;;33.86;29.08;96316.28;5072712;28;20111;-67
2021/08/03 06:15:06;;;;;;;10.18;5.15;;;;;;;33.83;28.75;96315.88;5072549;28;20478;-66
2021/08/03 06:17:37;;;;;;;14.68;4.82;;;;;;;33.85;28.43;96319.19;5072762;28;20040;-66
2021/08/03 06:20:04;;;;;;;15.32;5.68;;;;;;;33.86;28.36;96326.31;5072612;28;20772;-66
2021/08/03 06:22:35;;;;;;;12.75;5.05;;;;;;;34.00;28.32;96321.66;5072552;28;20552;-66
2021/08/03 06:25:01;;;;;;;12.73;5.20;;;;;;;34.25;28.75;96323.72;5072717;28;20031;-67
2021/08/03 06:27:28;;;;;;;16.38;5.68;;;;;;;34.31;28.06;96324.72;5072471;28;20027;-67
2021/08/03 06:29:54;;;;;;;9.13;4.97;;;;;;;34.14;29.13;96327.91;5072490;28;20501;-67
2021/08/03 06:32:22;;;;;;;31.20;5.22;;;;;;;34.60;29.32;96336.06;5072515;28;20028;-66
2021/08/03 06:34:48;;;;;;;7.75;4.78;;;;;;;34.87;27.65;96339.47;5072447;28;20382;-67
2021/08/03 06:37:14;;;;;;;8.75;4.65;;;;;;;35.10;27.66;96348.94;5072464;28;20027;-67
2021/08/03 06:39:40;;;;;;;7.97;4.97;;;;;;;35.30;26.45;96353.41;5072415;28;20029;-66
2021/08/03 06:42:11;;;;;;;11.07;4.20;;;;;;;35.41;27.29;96347.25;5072136;28;20064;-66
2021/08/03 06:44:44;;;;;;;11.13;4.57;;;;;;;35.41;26.89;96349.97;5072389;28;20036;-66
2021/08/03 06:47:11;;;;;;;7.40;4.50;;;;;;;35.31;27.15;96348.81;5072395;28;20032;-66
2021/08/03 06:49:43;;;;;;;11.45;4.53;;;;;;;35.52;26.53;96351.13;5072432;28;20462;-66
2021/08/03 06:52:13;;;;;;;10.95;5.25;;;;;;;35.63;27.80;96356.88;5073511;28;20493;-66
2021/08/03 06:54:42;;;;;;;10.38;4.60;;;;;;;35.87;25.58;96357.09;5075885;28;20039;-66
2021/08/03 06:57:09;;;;;;;16.10;4.78;;;;;;;35.90;24.90;96362.09;5075739;28;20051;-66
2021/08/03 06:59:45;;;;;;;10.40;4.43;;;;;;;35.80;25.84;96359.91;5075729;28;20028;-66
2021/08/03 07:02:16;;;;;;;8.25;3.63;;;;;;;36.03;25.09;96366.56;5075723;28;20059;-66
2021/08/03 07:04:54;;;;;;;8.50;4.63;;;;;;;36.37;26.01;96360.75;5075800;28;20046;-66
2021/08/03 07:07:21;;;;;;;13.45;4.25;;;;;;;36.52;24.87;96366.66;5075719;28;20032;-66
2021/08/03 07:09:49;;;;;;;10.88;4.32;;;;;;;36.45;25.01;96370.50;5075616;28;20588;-66
2021/08/03 07:12:14;;;;;;;12.25;4.18;;;;;;;36.67;25.19;96370.84;5075718;28;20020;-66
2021/08/03 07:14:41;;;;;;;12.32;4.85;;;;;;;36.98;25.21;96371.69;5075465;28;20031;-66
2021/08/03 07:17:11;;;;;;;15.57;4.75;;;;;;;37.18;24.49;96370.56;5057555;28;20107;-67
2021/08/03 07:19:38;;;;;;;6.78;4.15;;;;;;;37.39;23.47;96373.84;5075546;28;20040;-65
2021/08/03 07:22:04;;;;;;;11.10;4.28;;;;;;;37.38;23.63;96373.00;5075543;28;20029;-67
2021/08/03 07:24:30;;;;;;;9.32;4.10;;;;;;;37.59;23.71;96369.94;5075267;28;20043;-67
2021/08/03 07:26:57;;;;;;;12.32;4.53;;;;;;;37.70;22.89;96366.41;5075270;28;20027;-67
2021/08/03 07:29:24;;;;;;;7.30;4.20;;;;;;;37.98;22.26;96361.31;5075275;28;20047;-67
2021/08/03 07:31:50;;;;;;;11.32;4.13;;;;;;;38.04;22.81;96363.09;5075260;28;20471;-66
2021/08/03 07:34:16;;;;;;;10.68;5.07;;;;;;;37.91;22.89;96351.34;5075217;28;20031;-66
2021/08/03 07:36:42;;;;;;;7.93;4.55;;;;;;;37.69;22.41;96364.78;5075067;28;20029;-67
2021/08/03 07:39:08;;;;;;;12.52;4.28;;;;;;;37.79;22.71;96355.97;5075144;28;20028;-66
2021/08/03 07:41:38;;;;;;;12.48;4.88;;;;;;;38.13;24.71;96363.56;5074782;28;20131;-67
2021/08/03 07:44:04;;;;;;;8.52;4.57;;;;;;;38.26;23.09;96357.84;5075099;28;20382;-67
2021/08/03 07:46:31;;;;;;;10.07;4.05;;;;;;;38.06;22.33;96363.66;5075064;28;20029;-67
2021/08/03 07:48:58;;;;;;;11.70;4.05;;;;;;;38.32;22.34;96371.59;5074961;28;20020;-67
2021/08/03 07:51:25;;;;;;;14.48;4.93;;;;;;;38.23;22.17;96362.94;5074773;28;20021;-67
2021/08/03 07:53:51;;;;;;;9.30;4.10;;;;;;;38.32;22.81;96374.31;5074751;28;20032;-67
2021/08/03 07:56:18;;;;;;;10.55;4.63;;;;;;;38.58;22.25;96381.13;5074665;28;20109;-66
2021/08/03 07:58:44;;;;;;;11.35;4.65;;;;;;;38.44;21.88;96375.13;5074778;28;20024;-67
2021/08/03 08:01:10;;;;;;;10.80;4.72;;;;;;;38.59;21.57;96385.53;5074624;28;20024;-66
2021/08/03 08:03:40;;;;;;;11.73;4.88;;;;;;;38.78;20.77;96390.81;5073650;28;20445;-67
2021/08/03 08:06:06;;;;;;;;;;;;;;;39.02;20.51;96382.53;5075018;28;20044;-66
2021/08/03 08:08:34;;;;;;;14.55;4.72;;;;;;;39.03;20.52;96386.91;5074576;28;20358;-66
2021/08/03 08:10:59;;;;;;;10.55;4.55;;;;;;;39.04;19.80;96388.59;5074555;28;20021;-67
2021/08/03 08:13:26;;;;;;;15.55;4.25;;;;;;;39.21;20.18;96385.88;5074349;28;20402;-66
2021/08/03 08:15:51;;;;;;;7.55;4.07;;;;;;;39.10;20.39;96387.63;5074389;28;20028;-66
2021/08/03 08:18:17;;;;;;;13.82;4.18;;;;;;;38.54;20.27;96390.88;5074315;28;20025;-67
2021/08/03 08:20:44;;;;;;;11.18;4.68;;;;;;;38.51;19.45;96394.09;5074286;28;20498;-67
2021/08/03 08:23:12;;;;;;;10.48;4.32;;;;;;;38.68;18.91;96394.19;5074126;28;20409;-66
2021/08/03 08:25:38;;;;;;;10.50;4.78;;;;;;;38.90;19.34;96388.88;5074089;28;20116;-66
2021/08/03 08:28:05;;;;;;;8.05;4.05;;;;;;;38.65;19.60;96390.06;5074027;28;20048;-66
2021/08/03 08:30:31;;;;;;;10.55;4.05;;;;;;;38.54;19.31;96390.88;5074022;28;20486;-67
2021/08/03 08:32:57;;;;;;;13.60;4.03;;;;;;;38.25;19.13;96397.13;5074031;28;20028;-66
2021/08/03 08:35:23;;;;;;;10.10;3.78;;;;;;;38.33;20.55;96395.09;5073936;28;20539;-66
2021/08/03 08:37:49;;;;;;;7.22;3.97;;;;;;;38.33;19.53;96392.34;5073953;28;20024;-66
2021/08/03 08:40:18;;;;;;;11.45;4.15;;;;;;;38.40;20.00;96385.69;5073855;28;20025;-66
2021/08/03 08:42:45;;;;;;;6.68;3.83;;;;;;;38.14;19.20;96389.75;5073739;28;20037;-66
2021/08/03 08:45:12;;;;;;;20.45;4.90;;;;;;;38.07;19.22;96376.22;5073844;28;20094;-66
2021/08/03 08:47:42;;;;;;;7.85;3.72;;;;;;;38.16;19.43;96380.28;5073625;28;20021;-67
2021/08/03 08:50:09;;;;;;;12.32;4.85;;;;;;;38.28;19.27;96385.72;5073683;28;20029;-66
2021/08/03 08:52:36;;;;;;;13.35;4.68;;;;;;;38.39;18.49;96389.50;5073588;28;20032;-66
2021/08/03 08:55:06;;;;;;;7.53;4.30;;;;;;;38.12;19.29;96380.97;5073435;28;20028;-67
2021/08/03 08:57:31;;;;;;;15.60;5.33;;;;;;;38.21;18.49;96376.00;5073586;28;20134;-66
2021/08/03 08:59:57;;;;;;;13.48;3.97;;;;;;;38.18;19.07;96390.97;5073501;28;20478;-67
2021/08/03 09:02:39;;;;;;;8.60;4.00;;;;;;;38.08;18.74;96391.56;5073516;28;20394;-67
2021/08/03 09:05:05;;;;;;;9.30;4.32;;;;;;;38.14;19.22;96398.78;5073522;28;20115;-66
2021/08/03 09:07:31;;;;;;;10.18;4.22;;;;;;;38.09;18.86;96390.47;5055614;28;20378;-67
2021/08/03 09:09:57;;;;;;;8.95;4.40;;;;;;;38.26;18.94;96395.22;5073618;28;20031;-67
2021/08/03 09:12:34;;;;;;;10.88;4.18;;;;;;;38.35;19.27;96384.75;5073432;28;20024;-66
2021/08/03 09:14:59;;;;;;;11.32;4.40;;;;;;;38.06;18.97;96396.41;5073012;28;20371;-66
2021/08/03 09:17:27;;;;;;;12.57;4.38;;;;;;;38.23;19.74;96385.63;5073026;28;20111;-66
2021/08/03 09:19:53;;;;;;;9.05;4.35;;;;;;;38.38;20.08;96381.56;5073387;28;20099;-66
2021/08/03 09:22:23;;;;;;;8.52;3.85;;;;;;;38.24;19.07;96370.06;5073248;28;20482;-66
2021/08/03 09:25:08;;;;;;;14.18;4.13;;;;;;;38.24;19.20;96381.81;5073180;28;20474;-66
2021/08/03 09:27:41;;;;;;;8.73;4.40;;;;;;;38.04;18.50;96371.28;5073393;28;20050;-66
2021/08/03 09:30:10;;;;;;;20.95;4.85;;;;;;;38.14;18.68;96368.75;5073162;28;20028;-66
2021/08/03 09:32:37;;;;;;;15.80;4.95;;;;;;;37.73;19.53;96374.13;5073078;28;20035;-66
2021/08/03 09:35:23;;;;;;;12.07;4.65;;;;;;;37.37;19.92;96376.78;5073002;28;20522;-66
2021/08/03 09:37:50;;;;;;;12.52;5.10;;;;;;;36.67;19.11;96368.97;5073034;28;20467;-67
2021/08/03 09:40:32;;;;;;;12.48;4.80;;;;;;;36.38;20.22;96367.84;5072900;28;20035;-67
2021/08/03 09:43:02;;;;;;;10.60;4.57;;;;;;;36.28;20.77;96371.97;5072937;28;20099;-66
2021/08/03 09:45:30;;;;;;;9.23;4.15;;;;;;;36.46;21.54;96369.44;5073006;28;20047;-66
2021/08/03 09:48:13;;;;;;;10.35;4.60;;;;;;;36.71;20.03;96363.09;5072935;28;20032;-67
2021/08/03 09:50:52;;;;;;;17.50;4.60;;;;;;;36.97;21.08;96363.75;5072791;28;20035;-66
2021/08/03 09:53:44;;;;;;;10.37;4.70;;;;;;;37.20;20.33;96371.19;5073017;28;20029;-67
2021/08/03 09:56:18;;;;;;;14.70;5.13;;;;;;;37.34;20.36;96374.53;5072774;28;20040;-67
2021/08/03 09:58:56;;;;;;;9.00;5.10;;;;;;;37.60;19.35;96374.34;5072939;28;20505;-67
2021/08/03 10:01:35;;;;;;;11.10;4.45;;;;;;;37.70;21.53;96371.03;5072801;28;20031;-67
2021/08/03 10:04:02;;;;;;;10.23;4.28;;;;;;;37.73;19.49;96373.28;5072899;28;20040;-67
2021/08/03 10:06:28;;;;;;;9.07;4.25;;;;;;;37.69;19.76;96366.66;5072843;28;20024;-67
2021/08/03 10:08:55;;;;;;;16.00;5.35;;;;;;;37.70;18.58;96360.97;5072832;28;20741;-67
2021/08/03 10:11:22;;;;;;;10.65;5.05;;;;;;;37.41;17.71;96360.81;5072843;28;20378;-67
2021/08/03 10:13:49;;;;;;;9.32;4.00;;;;;;;37.09;19.88;96363.78;5072729;28;20082;-67
2021/08/03 10:16:15;;;;;;;8.07;4.95;;;;;;;37.21;17.34;96367.41;5072546;28;20025;-67
2021/08/03 10:18:44;;;;;;;10.80;4.18;;;;;;;37.25;18.41;96359.59;5072593;28;20017;-67
2021/08/03 10:21:17;;;;;;;10.43;4.10;;;;;;;37.31;18.08;96361.38;5072524;28;20017;-67
2021/08/03 10:23:45;;;;;;;6.68;3.85;;;;;;;37.33;17.37;96370.16;5072628;28;20528;-67
2021/08/03 10:26:15;;;;;;;10.98;4.38;;;;;;;37.30;17.68;96365.19;5072540;28;20352;-67
2021/08/03 10:28:42;;;;;;;11.05;4.10;;;;;;;37.40;17.87;96345.50;5076223;28;20075;-67
2021/08/03 10:31:40;;;;;;;10.80;4.15;;;;;;;37.45;19.32;96347.53;5076279;28;20047;-66
2021/08/03 10:34:07;;;;;;;14.25;4.13;;;;;;;37.60;16.73;96352.50;5076308;28;20052;-67
2021/08/03 10:36:41;;;;;;;11.20;4.15;;;;;;;37.34;17.29;96349.16;5076139;28;20078;-67
2021/08/03 10:39:15;;;;;;;8.15;3.95;;;;;;;37.24;19.58;96349.75;5076225;28;20107;-67
2021/08/03 10:42:00;;;;;;;11.65;4.63;;;;;;;37.02;18.18;96348.38;5076027;28;20498;-66
2021/08/03 10:44:48;;;;;;;10.63;4.63;;;;;;;37.11;17.68;96339.88;5061849;28;20032;-67
2021/08/03 10:47:36;;;;;;;13.05;4.40;;;;;;;36.77;18.90;96334.91;5058390;28;20525;-67
2021/08/03 10:50:06;;;;;;;15.02;4.40;;;;;;;36.57;18.75;96335.19;5076018;28;20035;-67
2021/08/03 10:52:52;;;;;;;11.30;4.63;;;;;;;36.65;20.00;96327.50;5075913;28;20020;-67
2021/08/03 10:55:30;;;;;;;7.47;4.40;;;;;;;36.87;19.42;96318.03;5075967;28;20024;-67
2021/08/03 10:58:16;;;;;;;12.20;4.60;;;;;;;37.16;18.97;96329.94;5075959;28;20028;-67
2021/08/03 11:00:47;;;;;;;10.68;3.75;;;;;;;37.46;19.11;96332.81;5075693;28;20033;-67
2021/08/03 11:06:11;;;;;;;8.30;4.53;;;;;;;37.51;17.77;96319.31;5075843;28;20166;-67
2021/08/03 11:08:41;;;;;;;11.40;4.07;;;;;;;37.54;18.89;96319.69;5075898;28;20025;-67
2021/08/03 11:11:11;;;;;;;9.75;4.68;;;;;;;37.45;18.73;96318.38;5075722;28;20033;-67
2021/08/03 11:13:52;;;;;;;8.40;4.38;;;;;;;37.46;19.26;96314.56;5075657;28;20020;-67
2021/08/03 11:16:23;;;;;;;9.63;4.40;;;;;;;37.54;21.04;96321.56;5075526;28;20111;-67
2021/08/03 11:18:51;;;;;;;10.38;4.68;;;;;;;37.77;20.36;96326.22;5075450;28;20044;-67
2021/08/03 11:21:18;;;;;;;12.80;4.72;;;;;;;37.79;18.69;96315.91;5075381;28;20406;-67
2021/08/03 11:24:16;;;;;;;10.38;4.53;;;;;;;37.88;19.02;96310.06;5075320;28;20024;-67
2021/08/03 11:26:51;;;;;;;11.07;4.20;;;;;;;37.84;18.60;96312.47;5075378;28;20063;-67
2021/08/03 11:29:25;;;;;;;5.72;3.38;;;;;;;37.60;19.95;96317.06;5075355;28;20367;-67
2021/08/03 11:32:06;;;;;;;10.77;3.97;;;;;;;37.17;20.54;96322.59;5075502;28;20031;-67
2021/08/03 11:34:40;;;;;;;6.57;3.58;;;;;;;37.01;21.08;96311.31;5075353;28;20386;-67
2021/08/03 11:37:15;;;;;;;6.40;3.63;;;;;;;36.69;21.21;96311.56;5075106;28;20064;-67
2021/08/03 11:39:45;;;;;;;8.68;3.28;;;;;;;36.28;21.44;96306.66;5075025;28;20056;-67